Airfield :
LOGIN :

Register | Disclaimer

   EN    FR    IT 

 










Legend :    VFR   Marginal VFR   IFR   Intensive IFR   Very Intensive IFR
Visi :
Ceiling :
>= 8 km
>= 3000ft
5 to 8 km
1000 to 3000 ft
1500m to 5 km
500 to 1000 ft
800 to 1500m
200 to 500 ft
< 800m
< 200 ft
Symbols :   Thunderstorms  Fog  Heavy snow  Heavy precipitations  Wind > 20 kt
SIGMETs :     Misc.  Thunderstorms  Icing  Turbulence  Mountain Waves  Volcanic Ashes






- Airport Elevation : 124 ft
- IATA code : NHT


EGWU - RAF Northolt

CURRENT METAR :
  • 162050Z 00000KT 9999 FEW043 BKN150 05/03 Q1008 BLU

EXPIRED METARs :
  • 161950Z 28002KT 9999 SCT045 OVC170 05/03 Q1008 BLU
  • 161850Z 28003KT 9999 BKN044 06/04 Q1008 BECMG 7000 BR

TAF TAF EGWU
Valid from the 16 at 18:00 until the 17 at 12:00 UTC


161633Z 1618/1712 27004KT 9999 SCT030
BECMG 1618/1621 7000 BR
BECMG 1622/1701 4000
PROB30 1703/1709 0300 FG VV///
BECMG 1709/1712 9999 NSW



MET'MAP, your aeronautical weather chart ! - Copyright ORBIFLY December 2007 - Disclaimer

ORBIFLY MET'MAP TEAM :

Programming & Development : Alexandra Zaïnal
Concept & Development : Baudouin d'Aumeries
Co-Development & Prog : Marc-Olivier Méhu
Technical & hardware support : Manuel Goepfert

Contact : metmap@orbifly.com




SOURCES & CREDITS :

   NOAA